Ozan, Arkansas
Current Conditions -  °F | °C
As of 11:53 PM on Saturday 20 Dec 2014 (Local Time) from KTXK Reporting Station
Overcast Overcast  
Wind Chill:   Ceiling: 3300
Heat Index:   Visibility: 7mi
Dew Point:   Wind: 3mph
Humidity: 93%   Direction: 70°ENE
Pressure: 30.21"   Gusts: NA
Location:  33.85°N, 93.72°W
Report Text: KTXK 210553Z AUTO 07003KT 7SM OVC033 06/05 A3021 RMK AO2 SLP231 T00610050 10089 20044 401060044 58001
Loading
Personal Weather Stations






























Interactive Weather Map New forecast layout! Learn more

10-Day Weather Forecast

Advertisements
Track Severe Weather on mobile